Time;durP1;ratioP1;P1;durP2;ratioP2;P2;SDS_P1;SDS_P2;PMS_P1;PMS_P2;Temp;Humidity;BMP_temperature;BMP_pressure;BME280_temperature;BME280_humidity;BME280_pressure;Samples;Min_cycle;Max_cycle;Signal;HPM_P1;HPM_P2
2021/07/31 00:00:06;;;;;;;;;;;18.10;81.10;;;;;;4344236;33;44026;-89
2021/07/31 00:02:33;;;;;;;;;;;18.10;81.20;;;;;;4331547;33;44239;-87
2021/07/31 00:05:01;;;;;;;;;;;18.10;81.20;;;;;;4344891;33;45557;-89
2021/07/31 00:07:33;;;;;;;;;;;18.10;81.30;;;;;;4344900;33;44235;-87
2021/07/31 00:10:06;;;;;;;;;;;18.10;81.40;;;;;;4344515;33;43950;-83
2021/07/31 00:12:37;;;;;;;;;;;18.10;81.40;;;;;;4331914;33;43485;-90
2021/07/31 00:15:04;;;;;;;;;;;18.10;81.50;;;;;;4344730;33;44324;-90
2021/07/31 00:17:31;;;;;;;;;;;18.10;81.50;;;;;;4332366;33;44196;-89
2021/07/31 00:19:59;;;;;;;;;;;18.10;81.50;;;;;;4344362;33;43807;-89
2021/07/31 00:22:32;;;;;;;;;;;18.10;81.50;;;;;;4343747;33;45545;-84
2021/07/31 00:24:59;;;;;;;;;;;18.10;81.50;;;;;;4332960;33;20001;-86
2021/07/31 00:27:29;;;;;;;;;;;18.10;81.60;;;;;;4343806;33;44039;-88
2021/07/31 00:30:00;;;;;;;;;;;18.00;81.60;;;;;;4332093;33;44176;-88
2021/07/31 00:32:30;;;;;;;;;;;18.00;81.70;;;;;;4344039;33;43713;-89
2021/07/31 00:35:02;;;;;;;;;;;18.00;81.70;;;;;;4331563;33;42617;-85
2021/07/31 00:37:29;;;;;;;;;;;18.00;81.80;;;;;;4344098;33;44824;-87
2021/07/31 00:39:57;;;;;;;;;;;18.00;81.90;;;;;;4331798;33;43529;-88
2021/07/31 00:42:27;;;;;;;;;;;18.00;82.00;;;;;;4345222;33;43349;-89
2021/07/31 00:44:54;;;;;;;;;;;18.00;82.00;;;;;;4331793;33;45938;-87
2021/07/31 00:47:21;;;;;;;;;;;17.90;81.90;;;;;;4331729;33;44859;-86
2021/07/31 00:49:52;;;;;;;;;;;18.00;82.10;;;;;;4344154;33;45794;-88
2021/07/31 00:52:22;;;;;;;;;;;17.90;82.00;;;;;;4331771;33;44802;-88
2021/07/31 00:54:49;;;;;;;;;;;17.90;82.10;;;;;;4344050;33;45188;-86
2021/07/31 00:57:17;;;;;;;;;;;17.90;82.20;;;;;;4344869;33;45951;-90
2021/07/31 00:59:44;;;;;;;;;;;17.90;82.30;;;;;;4344599;33;44907;-91
2021/07/31 01:02:11;;;;;;;;;;;17.90;82.30;;;;;;4345593;33;44210;-92
2021/07/31 01:04:38;;;;;;;;;;;17.90;82.20;;;;;;4334012;33;45879;-87
2021/07/31 01:07:06;;;;;;;;;;;17.90;82.20;;;;;;4334139;33;44764;-84
2021/07/31 01:09:39;;;;;;;;;;;17.90;82.20;;;;;;4334810;33;45568;-86
2021/07/31 01:12:06;;;;;;;;;;;17.90;82.30;;;;;;4346978;33;44808;-85
2021/07/31 01:14:41;;;;;;;;;;;17.80;82.20;;;;;;4347527;33;44768;-88
2021/07/31 01:17:11;;;;;;;;;;;17.80;82.30;;;;;;4333919;33;44552;-84
2021/07/31 01:19:39;;;;;;;;;;;17.80;82.50;;;;;;4345899;33;43518;-85
2021/07/31 01:22:06;;;;;;;;;;;17.80;82.50;;;;;;4333938;33;44003;-86
2021/07/31 01:24:33;;;;;;;;;;;17.80;82.60;;;;;;4346360;33;44239;-84
2021/07/31 01:27:00;;;;;;;;;;;17.70;82.60;;;;;;4347738;33;20014;-84
2021/07/31 01:29:28;;;;;;;;;;;17.80;82.70;;;;;;4347222;33;44232;-85
2021/07/31 01:31:55;;;;;;;;;;;17.80;82.70;;;;;;4346590;33;46203;-85
2021/07/31 01:34:22;;;;;;;;;;;17.70;82.70;;;;;;4334012;33;43728;-90
2021/07/31 01:36:49;;;;;;;;;;;17.80;82.90;;;;;;4347076;33;45689;-86
2021/07/31 01:39:16;;;;;;;;;;;17.70;82.70;;;;;;4333739;33;43172;-86
2021/07/31 01:41:43;;;;;;;;;;;17.70;82.80;;;;;;4346083;33;45662;-86
2021/07/31 01:44:11;;;;;;;;;;;17.70;83.00;;;;;;4346567;33;42642;-86
2021/07/31 01:46:38;;;;;;;;;;;17.70;83.00;;;;;;4347158;33;44699;-85
2021/07/31 01:49:05;;;;;;;;;;;17.70;83.00;;;;;;4345990;33;45155;-85
2021/07/31 01:51:32;;;;;;;;;;;17.70;83.10;;;;;;4333520;33;45132;-87
2021/07/31 01:53:59;;;;;;;;;;;17.70;83.20;;;;;;4345408;33;44822;-87
2021/07/31 01:56:29;;;;;;;;;;;17.70;83.20;;;;;;4333395;33;44431;-86
2021/07/31 01:58:57;;;;;;;;;;;17.60;83.20;;;;;;4345627;33;43497;-87
2021/07/31 02:01:24;;;;;;;;;;;17.60;83.30;;;;;;4333407;33;43486;-89
2021/07/31 02:03:52;;;;;;;;;;;17.70;83.30;;;;;;4346807;33;46024;-85
2021/07/31 02:06:19;;;;;;;;;;;17.60;83.30;;;;;;4333441;33;44099;-87
2021/07/31 02:08:46;;;;;;;;;;;17.70;83.40;;;;;;4345743;33;44848;-91
2021/07/31 02:11:13;;;;;;;;;;;17.60;83.40;;;;;;4333736;33;44608;-87
2021/07/31 02:13:43;;;;;;;;;;;17.60;83.50;;;;;;4332710;33;45128;-85
2021/07/31 02:16:10;;;;;;;;;;;17.60;83.60;;;;;;4345386;33;44765;-87
2021/07/31 02:18:38;;;;;;;;;;;17.60;83.60;;;;;;4333325;33;43984;-89
2021/07/31 02:21:10;;;;;;;;;;;17.60;83.70;;;;;;4346621;33;44488;-87
2021/07/31 02:23:37;;;;;;;;;;;17.60;83.90;;;;;;4333085;33;44537;-83
2021/07/31 02:26:04;;;;;;;;;;;17.60;83.80;;;;;;4345844;33;45328;-85
2021/07/31 02:28:31;;;;;;;;;;;17.60;83.90;;;;;;4346413;33;46000;-83
2021/07/31 02:30:58;;;;;;;;;;;17.50;83.80;;;;;;4345224;33;43209;-85
2021/07/31 02:33:25;;;;;;;;;;;17.60;84.00;;;;;;4333092;33;44761;-87
2021/07/31 02:35:52;;;;;;;;;;;17.50;84.00;;;;;;4345403;33;43471;-84
2021/07/31 02:38:20;;;;;;;;;;;17.50;84.20;;;;;;4344982;33;42885;-83
2021/07/31 02:40:47;;;;;;;;;;;17.50;84.20;;;;;;4344996;33;42967;-86
2021/07/31 02:43:14;;;;;;;;;;;17.50;84.30;;;;;;4332411;33;44137;-83
2021/07/31 02:45:41;;;;;;;;;;;17.50;84.30;;;;;;4332381;33;44037;-85
2021/07/31 02:48:08;;;;;;;;;;;17.50;84.30;;;;;;4345467;33;44900;-84
2021/07/31 02:50:35;;;;;;;;;;;17.60;84.30;;;;;;4332523;33;43294;-90
2021/07/31 02:53:02;;;;;;;;;;;17.50;84.30;;;;;;4345641;33;44194;-85
2021/07/31 02:55:31;;;;;;;;;;;17.60;84.40;;;;;;4332415;33;43342;-88
2021/07/31 02:57:58;;;;;;;;;;;17.60;84.30;;;;;;4344427;33;44725;-84
2021/07/31 03:00:25;;;;;;;;;;;17.60;85.10;;;;;;4344916;33;42778;-86
2021/07/31 03:02:52;;;;;;;;;;;17.50;84.40;;;;;;4332257;33;44792;-91
2021/07/31 03:05:20;;;;;;;;;;;17.50;84.50;;;;;;4346121;33;44958;-86
2021/07/31 03:07:47;;;;;;;;;;;17.50;84.70;;;;;;4345519;33;44804;-84
2021/07/31 03:10:14;;;;;;;;;;;17.50;84.70;;;;;;4345938;33;44912;-87
2021/07/31 03:12:41;;;;;;;;;;;17.50;84.80;;;;;;4344701;33;45709;-83
2021/07/31 03:15:08;;;;;;;;;;;17.50;84.80;;;;;;4344192;33;43494;-89
2021/07/31 03:17:35;;;;;;;;;;;17.50;84.80;;;;;;4332107;33;45022;-84
2021/07/31 03:20:03;;;;;;;;;;;17.50;84.80;;;;;;4345595;33;42882;-85
2021/07/31 03:22:30;;;;;;;;;;;17.50;84.90;;;;;;4344075;33;45476;-84
2021/07/31 03:25:01;;;;;;;;;;;17.50;85.10;;;;;;4331485;33;46006;-84
2021/07/31 03:27:34;;;;;;;;;;;17.40;85.10;;;;;;4344299;33;42262;-85
2021/07/31 03:30:07;;;;;;;;;;;17.40;85.20;;;;;;4332326;33;43307;-85
2021/07/31 03:32:37;;;;;;;;;;;17.40;85.20;;;;;;4331939;33;42847;-82
2021/07/31 03:35:10;;;;;;;;;;;17.40;85.20;;;;;;4345261;33;44642;-86
2021/07/31 03:37:37;;;;;;;;;;;17.50;85.30;;;;;;4345442;33;45290;-82
2021/07/31 03:40:15;;;;;;;;;;;17.50;85.30;;;;;;4332423;33;45341;-83
2021/07/31 03:42:45;;;;;;;;;;;17.40;85.40;;;;;;4345556;33;43993;-81
2021/07/31 03:45:12;;;;;;;;;;;17.40;85.50;;;;;;4331885;33;45672;-83
2021/07/31 03:47:42;;;;;;;;;;;17.40;85.50;;;;;;4344411;33;44259;-88
2021/07/31 03:50:20;;;;;;;;;;;17.40;85.70;;;;;;4344898;33;45768;-88
2021/07/31 03:52:53;;;;;;;;;;;17.40;85.80;;;;;;4344833;33;42699;-84
2021/07/31 03:55:25;;;;;;;;;;;17.30;85.90;;;;;;4344209;33;43271;-88
2021/07/31 03:58:00;;;;;;;;;;;17.30;86.10;;;;;;4345066;33;20036;-89
2021/07/31 04:00:33;;;;;;;;;;;17.30;86.10;;;;;;4344367;33;43188;-86
2021/07/31 04:03:18;;;;;;;;;;;17.30;86.10;;;;;;4343733;33;42279;-85
2021/07/31 04:05:45;;;;;;;;;;;17.30;86.20;;;;;;4344209;33;44413;-82
2021/07/31 04:08:16;;;;;;;;;;;17.20;86.20;;;;;;4331894;33;45972;-86
2021/07/31 04:10:48;;;;;;;;;;;17.20;86.40;;;;;;4332152;33;44632;-82
2021/07/31 04:13:15;;;;;;;;;;;17.20;86.50;;;;;;4344214;33;43299;-88
2021/07/31 04:15:45;;;;;;;;;;;17.20;86.60;;;;;;4345083;33;43482;-91
2021/07/31 04:18:13;;;;;;;;;;;17.20;86.60;;;;;;4343995;33;42922;-90
2021/07/31 04:20:40;;;;;;;;;;;17.20;86.70;;;;;;4345487;33;45687;-88
2021/07/31 04:23:07;;;;;;;;;;;17.20;86.80;;;;;;4344120;33;44853;-88
2021/07/31 04:25:38;;;;;;;;;;;17.10;86.80;;;;;;4331950;33;44853;-89
2021/07/31 04:28:05;;;;;;;;;;;17.10;86.90;;;;;;4345052;33;20001;-90
2021/07/31 04:30:34;;;;;;;;;;;17.20;87.00;;;;;;4344143;33;45038;-88
2021/07/31 04:33:01;;;;;;;;;;;17.10;87.00;;;;;;4344801;33;45702;-86
2021/07/31 04:35:28;;;;;;;;;;;17.10;86.90;;;;;;4344221;33;43337;-87
2021/07/31 04:37:55;;;;;;;;;;;17.20;87.00;;;;;;4334766;33;45506;-88
2021/07/31 04:40:22;;;;;;;;;;;17.10;87.00;;;;;;4346901;33;44768;-87
2021/07/31 04:42:49;;;;;;;;;;;17.10;87.10;;;;;;4334226;33;44288;-87
2021/07/31 04:45:16;;;;;;;;;;;17.10;87.10;;;;;;4346579;33;43166;-86
2021/07/31 04:47:43;;;;;;;;;;;17.10;87.20;;;;;;4346967;33;44841;-89
2021/07/31 04:50:13;;;;;;;;;;;17.10;87.30;;;;;;4334328;33;44458;-85
2021/07/31 04:52:43;;;;;;;;;;;17.10;87.40;;;;;;4347486;33;42958;-91
2021/07/31 04:55:10;;;;;;;;;;;17.10;87.50;;;;;;4333945;33;45176;-89
2021/07/31 04:57:37;;;;;;;;;;;17.10;87.50;;;;;;4346703;33;44777;-88
2021/07/31 05:00:05;;;;;;;;;;;17.10;87.60;;;;;;4334528;33;44722;-88
2021/07/31 05:02:33;;;;;;;;;;;17.10;87.60;;;;;;4346353;33;44676;-86
2021/07/31 05:05:00;;;;;;;;;;;17.10;87.60;;;;;;4346502;33;43728;-87
2021/07/31 05:07:28;;;;;;;;;;;17.10;87.60;;;;;;4334122;33;43309;-85
2021/07/31 05:09:55;;;;;;;;;;;17.10;87.80;;;;;;4346225;33;44124;-89
2021/07/31 05:12:22;;;;;;;;;;;17.10;87.80;;;;;;4334100;33;45728;-90
2021/07/31 05:14:50;;;;;;;;;;;17.00;87.80;;;;;;4333768;33;44785;-89
2021/07/31 05:17:19;;;;;;;;;;;17.10;88.00;;;;;;4346222;33;43005;-89
2021/07/31 05:19:52;;;;;;;;;;;17.00;88.00;;;;;;4334299;33;43721;-83
2021/07/31 05:22:19;;;;;;;;;;;17.10;88.10;;;;;;4346412;33;45026;-88
2021/07/31 05:24:53;;;;;;;;;;;17.00;88.20;;;;;;4346323;33;43501;-86
2021/07/31 05:27:20;;;;;;;;;;;17.00;88.30;;;;;;4334246;33;45518;-85
2021/07/31 05:29:47;;;;;;;;;;;17.00;88.40;;;;;;4333419;33;44947;-84
2021/07/31 05:32:14;;;;;;;;;;;17.00;88.40;;;;;;4346777;33;44681;-87
2021/07/31 05:34:41;;;;;;;;;;;17.00;88.40;;;;;;4345904;33;43353;-86
2021/07/31 05:37:08;;;;;;;;;;;17.00;88.60;;;;;;4333698;33;45982;-86
2021/07/31 05:39:38;;;;;;;;;;;17.00;88.50;;;;;;4345540;33;44314;-89
2021/07/31 05:42:06;;;;;;;;;;;17.00;88.60;;;;;;4334217;33;43479;-90
2021/07/31 05:44:33;;;;;;;;;;;17.00;88.60;;;;;;4346200;33;44787;-88
2021/07/31 05:47:00;;;;;;;;;;;17.00;88.70;;;;;;4333253;33;44772;-86
2021/07/31 05:49:30;;;;;;;;;;;17.00;88.80;;;;;;4333548;33;43895;-86
2021/07/31 05:51:58;;;;;;;;;;;17.00;88.80;;;;;;4333664;33;45729;-90
2021/07/31 05:54:25;;;;;;;;;;;17.00;88.80;;;;;;4346432;33;45692;-90
2021/07/31 05:56:52;;;;;;;;;;;17.00;88.90;;;;;;4345572;33;45693;-86
2021/07/31 05:59:19;;;;;;;;;;;17.00;88.90;;;;;;4333429;33;43264;-86
2021/07/31 06:01:46;;;;;;;;;;;17.00;89.00;;;;;;4346751;33;43602;-86
2021/07/31 06:04:13;;;;;;;;;;;17.00;89.10;;;;;;4333792;33;44195;-90
2021/07/31 06:06:40;;;;;;;;;;;17.00;89.10;;;;;;4345703;33;45921;-88
2021/07/31 06:09:08;;;;;;;;;;;17.00;89.10;;;;;;4333066;33;44510;-89
2021/07/31 06:11:35;;;;;;;;;;;17.00;89.10;;;;;;4346600;33;44758;-83
2021/07/31 06:14:02;;;;;;;;;;;17.00;89.20;;;;;;4333189;33;44183;-87
2021/07/31 06:16:29;;;;;;;;;;;17.10;89.20;;;;;;4346890;33;44084;-90
2021/07/31 06:18:57;;;;;;;;;;;17.10;89.30;;;;;;4345970;33;43534;-87
2021/07/31 06:21:24;;;;;;;;;;;17.00;89.20;;;;;;4347163;33;44290;-88
2021/07/31 06:23:51;;;;;;;;;;;17.00;89.30;;;;;;4345709;33;44388;-86
2021/07/31 06:26:19;;;;;;;;;;;17.00;89.40;;;;;;4332908;33;44056;-87
2021/07/31 06:28:46;;;;;;;;;;;17.00;89.40;;;;;;4333163;33;45758;-85
2021/07/31 06:31:13;;;;;;;;;;;17.00;89.40;;;;;;4332948;33;43476;-91
2021/07/31 06:33:40;;;;;;;;;;;17.00;89.60;;;;;;4333281;33;44781;-90
2021/07/31 06:36:07;;;;;;;;;;;17.00;89.50;;;;;;4345081;33;44810;-89
2021/07/31 06:38:34;;;;;;;;;;;17.00;89.50;;;;;;4346389;33;43028;-85
2021/07/31 06:41:02;;;;;;;;;;;17.00;89.50;;;;;;4346324;33;44371;-88
2021/07/31 06:43:29;;;;;;;;;;;17.00;89.60;;;;;;4332879;33;45893;-90
2021/07/31 06:46:10;;;;;;;;;;;17.00;89.60;;;;;;4345301;33;43126;-90
2021/07/31 06:48:41;;;;;;;;;;;17.00;89.80;;;;;;4332782;33;45713;-90
2021/07/31 06:51:16;;;;;;;;;;;17.00;90.00;;;;;;4346505;33;45658;-89
2021/07/31 06:53:52;;;;;;;;;;;16.90;90.10;;;;;;4332817;33;45258;-88
2021/07/31 06:56:22;;;;;;;;;;;16.90;90.20;;;;;;4344811;33;43298;-85
2021/07/31 06:58:49;;;;;;;;;;;16.90;90.20;;;;;;4345391;33;43625;-85
2021/07/31 07:01:22;;;;;;;;;;;17.00;90.30;;;;;;4345569;33;20036;-87
2021/07/31 07:03:55;;;;;;;;;;;16.90;90.30;;;;;;4333094;33;43483;-92
2021/07/31 07:06:27;;;;;;;;;;;17.00;90.40;;;;;;4346553;33;44193;-94
2021/07/31 07:09:09;;;;;;;;;;;17.00;90.40;;;;;;4346340;33;43999;-91
2021/07/31 07:11:44;;;;;;;;;;;17.00;90.50;;;;;;4346253;33;44851;-91
2021/07/31 07:14:22;;;;;;;;;;;17.00;90.60;;;;;;4345171;33;42726;-84
2021/07/31 07:17:00;;;;;;;;;;;17.00;90.50;;;;;;4333052;33;45407;-86
2021/07/31 07:19:33;;;;;;;;;;;17.00;90.60;;;;;;4345256;33;44897;-92
2021/07/31 07:22:00;;;;;;;;;;;16.90;90.60;;;;;;4333219;33;44019;-89
2021/07/31 07:24:30;;;;;;;;;;;16.90;90.70;;;;;;4344580;33;45219;-88
2021/07/31 07:26:57;;;;;;;;;;;16.90;90.80;;;;;;4345805;33;44279;-88
2021/07/31 07:29:33;;;;;;;;;;;16.90;90.80;;;;;;4344931;33;44574;-87
2021/07/31 07:32:17;;;;;;;;;;;16.90;90.90;;;;;;4345309;33;20044;-86
2021/07/31 07:34:49;;;;;;;;;;;17.00;90.90;;;;;;4344521;33;45711;-91
2021/07/31 07:37:16;;;;;;;;;;;16.90;90.90;;;;;;4332422;33;44392;-91
2021/07/31 07:39:54;;;;;;;;;;;16.90;91.00;;;;;;4332807;33;44400;-87
2021/07/31 07:42:33;;;;;;;;;;;17.00;91.50;;;;;;4331995;33;44837;-87
2021/07/31 07:45:00;;;;;;;;;;;16.90;91.10;;;;;;4345631;33;45557;-88
2021/07/31 07:47:35;;;;;;;;;;;16.90;91.10;;;;;;4332187;33;44930;-90
2021/07/31 07:50:11;;;;;;;;;;;17.00;91.10;;;;;;4345799;33;43946;-86
2021/07/31 07:52:50;;;;;;;;;;;17.00;91.30;;;;;;4344262;33;44492;-84
2021/07/31 07:55:31;;;;;;;;;;;17.00;91.20;;;;;;4344672;33;43369;-91
2021/07/31 07:58:07;;;;;;;;;;;17.00;91.60;;;;;;4345680;33;46010;-93
2021/07/31 08:00:45;;;;;;;;;;;17.00;91.20;;;;;;4344597;33;44969;-92
2021/07/31 08:03:19;;;;;;;;;;;17.00;91.30;;;;;;4333115;33;20395;-85
2021/07/31 08:05:46;;;;;;;;;;;17.00;91.30;;;;;;4345226;33;44121;-88
2021/07/31 08:08:28;;;;;;;;;;;17.00;91.30;;;;;;4332709;33;44604;-90
2021/07/31 08:10:58;;;;;;;;;;;17.10;91.30;;;;;;4345599;33;43961;-86
2021/07/31 08:13:33;;;;;;;;;;;17.10;91.20;;;;;;4335428;33;43352;-87
2021/07/31 08:16:11;;;;;;;;;;;17.10;91.20;;;;;;4348316;33;45757;-83
2021/07/31 08:18:46;;;;;;;;;;;17.10;91.20;;;;;;4348685;33;44064;-89
2021/07/31 08:21:23;;;;;;;;;;;17.10;91.20;;;;;;4347339;33;44014;-83
2021/07/31 08:23:56;;;;;;;;;;;17.10;91.20;;;;;;4335149;33;44793;-86
2021/07/31 08:26:35;;;;;;;;;;;17.10;91.10;;;;;;4347198;33;44738;-85
2021/07/31 08:29:08;;;;;;;;;;;17.10;91.10;;;;;;4347259;33;45739;-82
2021/07/31 08:31:40;;;;;;;;;;;17.10;91.10;;;;;;4347182;33;44215;-89
2021/07/31 08:34:14;;;;;;;;;;;17.10;91.10;;;;;;4348600;33;20064;-88
2021/07/31 08:36:53;;;;;;;;;;;17.20;91.10;;;;;;4348342;33;44911;-82
2021/07/31 08:39:20;;;;;;;;;;;17.20;91.10;;;;;;4334579;33;42966;-87
2021/07/31 08:41:55;;;;;;;;;;;17.20;91.10;;;;;;4348202;33;43332;-84
2021/07/31 08:44:31;;;;;;;;;;;17.20;91.10;;;;;;4334626;33;44146;-87
2021/07/31 08:47:05;;;;;;;;;;;17.20;91.10;;;;;;4346811;33;44363;-84
2021/07/31 08:49:36;;;;;;;;;;;17.20;91.10;;;;;;4334419;33;44085;-84
2021/07/31 08:52:12;;;;;;;;;;;17.20;91.10;;;;;;4334102;33;44138;-84
2021/07/31 08:54:48;;;;;;;;;;;17.20;91.10;;;;;;4347607;33;43844;-88
2021/07/31 08:57:27;;;;;;;;;;;17.30;91.10;;;;;;4334163;33;43439;-83
2021/07/31 09:00:03;;;;;;;;;;;17.30;91.10;;;;;;4334413;33;44240;-88
2021/07/31 09:02:48;;;;;;;;;;;17.30;91.10;;;;;;4347358;33;45748;-87
2021/07/31 09:05:31;;;;;;;;;;;17.30;91.10;;;;;;4334295;33;43283;-83
2021/07/31 09:08:08;;;;;;;;;;;17.30;91.10;;;;;;4334441;33;43528;-91
2021/07/31 09:10:39;;;;;;;;;;;17.30;91.10;;;;;;4346806;33;43292;-84
2021/07/31 09:13:07;;;;;;;;;;;17.40;91.10;;;;;;4346893;33;44902;-85
2021/07/31 09:15:51;;;;;;;;;;;17.40;91.10;;;;;;4347352;33;42928;-87
2021/07/31 09:18:32;;;;;;;;;;;17.40;91.00;;;;;;4346722;33;44174;-88
2021/07/31 09:21:20;;;;;;;;;;;17.40;91.00;;;;;;4346606;33;42944;-86
2021/07/31 09:23:58;;;;;;;;;;;17.40;91.00;;;;;;4347637;33;45067;-88
2021/07/31 09:26:38;;;;;;;;;;;17.50;91.10;;;;;;4346727;33;44182;-88
2021/07/31 09:29:13;;;;;;;;;;;17.50;91.00;;;;;;4334158;33;44374;-85
2021/07/31 09:32:01;;;;;;;;;;;17.50;91.00;;;;;;4346439;33;44587;-91
2021/07/31 09:34:28;;;;;;;;;;;17.50;91.00;;;;;;4348242;33;20044;-89
2021/07/31 09:37:25;;;;;;;;;;;17.60;91.00;;;;;;4333387;33;45137;-82
2021/07/31 09:40:02;;;;;;;;;;;17.50;90.90;;;;;;4333907;33;45388;-84
2021/07/31 09:42:38;;;;;;;;;;;17.60;91.00;;;;;;4345993;33;43996;-85
2021/07/31 09:45:20;;;;;;;;;;;17.60;91.00;;;;;;4345940;33;45690;-83
2021/07/31 09:48:10;;;;;;;;;;;17.60;91.00;;;;;;4346213;33;44570;-82
2021/07/31 09:50:50;;;;;;;;;;;17.50;91.00;;;;;;4333942;33;44055;-83
2021/07/31 09:53:22;;;;;;;;;;;17.50;91.00;;;;;;4347043;33;44879;-84
2021/07/31 09:55:58;;;;;;;;;;;17.50;91.10;;;;;;4346885;33;44143;-90
2021/07/31 09:58:32;;;;;;;;;;;17.50;91.10;;;;;;4347050;33;45861;-82
2021/07/31 10:01:03;;;;;;;;;;;17.50;91.10;;;;;;4334386;33;45510;-87
2021/07/31 10:03:35;;;;;;;;;;;17.50;91.20;;;;;;4346418;33;44691;-85
2021/07/31 10:06:03;;;;;;;;;;;17.50;91.20;;;;;;4333316;33;44559;-83
2021/07/31 10:08:39;;;;;;;;;;;17.60;91.20;;;;;;4345778;33;43068;-91
2021/07/31 10:11:12;;;;;;;;;;;17.60;91.30;;;;;;4345909;33;44550;-83
2021/07/31 10:13:50;;;;;;;;;;;17.60;91.30;;;;;;4345744;33;44987;-88
2021/07/31 10:16:21;;;;;;;;;;;17.60;91.30;;;;;;4332820;33;45364;-85
2021/07/31 10:19:01;;;;;;;;;;;17.60;91.30;;;;;;4345149;33;44480;-85
2021/07/31 10:21:52;;;;;;;;;;;17.60;91.30;;;;;;4345463;33;45818;-86
2021/07/31 10:24:19;;;;;;;;;;;17.60;91.30;;;;;;4345835;33;44388;-86
2021/07/31 10:27:08;;;;;;;;;;;17.60;91.30;;;;;;4332868;33;44483;-89
2021/07/31 10:29:41;;;;;;;;;;;17.60;91.40;;;;;;4333198;33;45622;-84
2021/07/31 10:32:21;;;;;;;;;;;17.70;91.30;;;;;;4345473;33;43441;-90
2021/07/31 10:34:48;;;;;;;;;;;17.70;91.20;;;;;;4346110;33;44295;-91
2021/07/31 10:37:27;;;;;;;;;;;17.70;91.20;;;;;;4332476;33;45768;-83
2021/07/31 10:40:06;;;;;;;;;;;17.70;91.50;;;;;;4346123;33;44621;-84
2021/07/31 10:42:52;;;;;;;;;;;17.80;91.20;;;;;;4346517;33;45058;-87
2021/07/31 10:45:23;;;;;;;;;;;17.80;91.10;;;;;;4332829;33;43987;-84
2021/07/31 10:47:54;;;;;;;;;;;17.80;91.10;;;;;;4332732;33;43348;-84
2021/07/31 10:50:24;;;;;;;;;;;17.90;91.10;;;;;;4346082;33;43548;-84
2021/07/31 10:53:19;;;;;;;;;;;17.90;91.00;;;;;;4332815;33;44279;-83
2021/07/31 10:55:46;;;;;;;;;;;18.00;91.00;;;;;;4338374;33;43525;-83
2021/07/31 10:58:17;;;;;;;;;;;18.00;91.00;;;;;;4332963;33;43761;-88
2021/07/31 11:00:52;;;;;;;;;;;18.00;90.90;;;;;;4345041;33;44905;-89
2021/07/31 11:05:58;;;;;;;;;;;18.00;90.80;;;;;;4345610;33;45398;-89
2021/07/31 11:08:34;;;;;;;;;;;18.00;90.80;;;;;;4332694;33;44971;-83
2021/07/31 11:11:21;;;;;;;;;;;18.00;90.70;;;;;;4344773;33;45491;-84
2021/07/31 11:13:51;;;;;;;;;;;18.00;90.70;;;;;;4344633;33;43242;-83
2021/07/31 11:16:33;;;;;;;;;;;18.00;90.70;;;;;;4345903;33;44594;-82
2021/07/31 11:19:08;;;;;;;;;;;18.00;90.80;;;;;;4345276;33;44067;-84
2021/07/31 11:21:52;;;;;;;;;;;18.00;90.80;;;;;;4344676;33;42326;-84
2021/07/31 11:24:27;;;;;;;;;;;18.00;90.70;;;;;;4345564;33;44594;-82
2021/07/31 11:26:57;;;;;;;;;;;18.00;90.80;;;;;;4344483;33;45327;-83
2021/07/31 11:29:33;;;;;;;;;;;18.00;90.80;;;;;;4332382;33;45282;-86
2021/07/31 11:32:00;;;;;;;;;;;18.00;90.80;;;;;;4344570;33;44211;-85
2021/07/31 11:34:34;;;;;;;;;;;18.00;90.80;;;;;;4332095;33;46176;-82
2021/07/31 11:37:03;;;;;;;;;;;18.10;90.90;;;;;;4345139;33;44067;-88
2021/07/31 11:39:30;;;;;;;;;;;18.10;90.80;;;;;;4333317;33;20036;-86
2021/07/31 11:42:00;;;;;;;;;;;18.20;90.80;;;;;;4345443;33;44500;-85
2021/07/31 11:44:40;;;;;;;;;;;18.20;90.70;;;;;;4332679;33;44178;-87
2021/07/31 11:47:07;;;;;;;;;;;18.30;90.80;;;;;;4343973;33;45324;-83
2021/07/31 11:49:38;;;;;;;;;;;18.30;90.70;;;;;;4343938;33;44218;-85
2021/07/31 11:52:11;;;;;;;;;;;18.30;90.70;;;;;;4332316;33;44340;-84
2021/07/31 11:54:46;;;;;;;;;;;18.40;90.70;;;;;;4344446;33;44305;-84
2021/07/31 11:57:14;;;;;;;;;;;18.40;90.70;;;;;;4332272;33;43475;-84
2021/07/31 11:59:47;;;;;;;;;;;18.40;90.60;;;;;;4344327;33;43911;-88
2021/07/31 12:02:36;;;;;;;;;;;18.40;90.60;;;;;;4344997;33;45143;-89
2021/07/31 12:05:09;;;;;;;;;;;18.50;90.50;;;;;;4332453;33;43304;-84
2021/07/31 12:07:41;;;;;;;;;;;18.40;90.90;;;;;;4345514;33;44723;-86
2021/07/31 12:10:19;;;;;;;;;;;18.50;90.50;;;;;;4333006;33;19998;-89
2021/07/31 12:12:47;;;;;;;;;;;18.50;90.60;;;;;;4344598;33;44455;-85
2021/07/31 12:15:22;;;;;;;;;;;18.50;90.50;;;;;;4331824;33;44455;-89
2021/07/31 12:18:06;;;;;;;;;;;18.50;90.50;;;;;;4345590;33;46013;-87
2021/07/31 12:20:43;;;;;;;;;;;18.50;90.60;;;;;;4332018;33;44332;-93
2021/07/31 12:23:24;;;;;;;;;;;18.50;90.60;;;;;;4343661;33;44828;-80
2021/07/31 12:26:08;;;;;;;;;;;18.50;90.50;;;;;;4332029;33;45744;-90
2021/07/31 12:28:44;;;;;;;;;;;18.50;90.50;;;;;;4345299;33;44790;-86
2021/07/31 12:31:31;;;;;;;;;;;18.50;90.50;;;;;;4345400;33;45874;-86
2021/07/31 12:34:09;;;;;;;;;;;18.60;90.60;;;;;;4344258;33;46050;-88
2021/07/31 12:36:55;;;;;;;;;;;18.50;90.50;;;;;;4331793;33;45710;-83
2021/07/31 12:39:33;;;;;;;;;;;18.50;90.50;;;;;;4344836;33;42267;-85
2021/07/31 12:42:00;;;;;;;;;;;18.60;90.50;;;;;;4332437;33;44871;-83
2021/07/31 12:44:38;;;;;;;;;;;18.60;90.50;;;;;;4343554;33;45571;-87
2021/07/31 12:47:16;;;;;;;;;;;18.60;90.50;;;;;;4345236;33;45697;-85
2021/07/31 12:49:54;;;;;;;;;;;18.60;90.50;;;;;;4343850;33;45521;-84
2021/07/31 12:52:29;;;;;;;;;;;18.60;90.50;;;;;;4345131;33;44097;-89
2021/07/31 12:55:05;;;;;;;;;;;18.60;90.50;;;;;;4345182;33;43482;-86
2021/07/31 12:57:40;;;;;;;;;;;18.70;90.40;;;;;;4333304;33;44823;-90
2021/07/31 13:00:08;;;;;;;;;;;18.70;90.40;;;;;;4346797;33;44687;-88
2021/07/31 13:03:06;;;;;;;;;;;18.70;90.50;;;;;;4336704;33;44658;-84
2021/07/31 13:05:45;;;;;;;;;;;18.70;90.40;;;;;;4346616;33;44845;-87
2021/07/31 13:08:29;;;;;;;;;;;18.80;90.40;;;;;;4334920;33;28329;-87
2021/07/31 13:11:06;;;;;;;;;;;18.80;90.40;;;;;;4346632;33;44177;-87
2021/07/31 13:13:42;;;;;;;;;;;18.90;90.40;;;;;;4334598;33;44060;-88
2021/07/31 13:16:10;;;;;;;;;;;18.80;90.40;;;;;;4346696;33;44179;-84
2021/07/31 13:18:40;;;;;;;;;;;18.90;90.50;;;;;;4334221;33;44717;-89
2021/07/31 13:21:13;;;;;;;;;;;18.90;90.40;;;;;;4334406;33;44974;-89
2021/07/31 13:23:43;;;;;;;;;;;18.90;90.40;;;;;;4346671;33;44678;-93
2021/07/31 13:26:21;;;;;;;;;;;18.80;90.40;;;;;;4336615;33;45853;-90
2021/07/31 13:28:57;;;;;;;;;;;18.90;90.40;;;;;;4347059;33;42686;-95
2021/07/31 13:31:35;;;;;;;;;;;18.90;90.40;;;;;;4334983;33;45613;-83
2021/07/31 13:34:13;;;;;;;;;;;18.90;90.40;;;;;;4333840;33;44042;-83
2021/07/31 13:36:44;;;;;;;;;;;18.90;90.50;;;;;;4333241;33;45306;-83
2021/07/31 13:39:14;;;;;;;;;;;18.90;90.50;;;;;;4346291;33;44062;-82
2021/07/31 13:41:47;;;;;;;;;;;18.90;90.50;;;;;;4327751;33;44622;-80
2021/07/31 13:44:17;;;;;;;;;;;18.90;90.50;;;;;;4331576;33;20001;-80
2021/07/31 13:46:52;;;;;;;;;;;19.00;90.50;;;;;;4331193;33;45899;-82
2021/07/31 13:49:22;;;;;;;;;;;18.90;90.50;;;;;;4330434;33;44227;-84
2021/07/31 13:51:49;;;;;;;;;;;18.90;90.50;;;;;;4331701;33;42461;-83
2021/07/31 13:54:17;;;;;;;;;;;19.00;90.50;;;;;;4331693;33;43753;-88
2021/07/31 13:56:44;;;;;;;;;;;19.00;90.50;;;;;;4318817;33;44263;-87
2021/07/31 13:59:14;;;;;;;;;;;19.00;90.50;;;;;;4331222;33;45668;-84
2021/07/31 14:01:41;;;;;;;;;;;19.00;90.50;;;;;;4330430;33;42502;-83
2021/07/31 14:04:09;;;;;;;;;;;19.00;90.60;;;;;;4318675;33;44787;-85
2021/07/31 14:06:36;;;;;;;;;;;19.00;90.60;;;;;;4331808;33;43351;-83
2021/07/31 14:09:04;;;;;;;;;;;18.90;90.60;;;;;;4318166;33;44216;-83
2021/07/31 14:11:31;;;;;;;;;;;19.00;90.70;;;;;;4331854;33;42307;-82
2021/07/31 14:13:58;;;;;;;;;;;19.00;90.70;;;;;;4331433;33;44416;-83
2021/07/31 14:16:26;;;;;;;;;;;19.00;90.70;;;;;;4318584;33;43534;-86
2021/07/31 14:18:53;;;;;;;;;;;19.00;90.70;;;;;;4330821;33;44075;-82
2021/07/31 14:21:20;;;;;;;;;;;19.00;90.80;;;;;;4318648;33;44330;-81
2021/07/31 14:23:47;;;;;;;;;;;19.10;90.80;;;;;;4331677;33;42526;-80
2021/07/31 14:26:14;;;;;;;;;;;19.10;90.90;;;;;;4331366;33;43803;-83
2021/07/31 14:28:41;;;;;;;;;;;19.10;90.90;;;;;;4331757;33;44215;-81
2021/07/31 14:31:11;;;;;;;;;;;19.20;90.90;;;;;;4318782;33;44371;-81
2021/07/31 14:33:41;;;;;;;;;;;19.20;90.80;;;;;;4330391;33;42950;-81
2021/07/31 14:36:09;;;;;;;;;;;19.20;90.80;;;;;;4318405;33;44275;-84
2021/07/31 14:38:46;;;;;;;;;;;19.20;90.70;;;;;;4318628;33;42853;-83
2021/07/31 14:41:16;;;;;;;;;;;19.20;90.70;;;;;;4330520;33;45902;-81
2021/07/31 14:43:46;;;;;;;;;;;19.30;90.80;;;;;;4318280;33;44229;-82